Richfield Heights, Ohio
Current Conditions -  °F | °C
As of 1:51 PM on Friday 31 Oct 2014 (Local Time) from KCLE Reporting Station
Light Rain Light Rain  
Wind Chill: 44°   Ceiling: 4500
Heat Index: 47°   Visibility: 10mi
Dew Point: 36°   Wind: 7mph
Humidity: 66%   Direction: 220°SW
Pressure: 29.89"   Gusts: NA
Location:  41.2393°N, 81.6428°W
Report Text: KCLE 311751Z 22006KT 10SM -RA OVC045 08/02 A2989 RMK AO2 RAB41 SLP124 P0000 60000 T00830022 10083 20067 58015
Loading
Personal Weather Stations






























Interactive Weather Map
Tropical Storm Tracking
New forecast layout! Learn more

10-Day Weather Forecast

Advertisements
Track Severe Weather on mobile